createdAt,value
2023-10-07T00:00:33.468Z,3.97
2023-10-07T00:01:49.259Z,3.99
2023-10-07T00:02:57.190Z,3.99
2023-10-07T00:04:06.489Z,3.98
2023-10-07T00:05:20.064Z,4.00
2023-10-07T00:06:48.759Z,3.99
2023-10-07T00:08:03.986Z,4.01
2023-10-07T00:09:12.867Z,3.98
2023-10-07T00:10:27.833Z,3.98
2023-10-07T00:11:38.808Z,4.00
2023-10-07T00:12:47.065Z,3.97
2023-10-07T00:13:57.388Z,3.96
2023-10-07T00:15:12.979Z,3.93
2023-10-07T00:16:29.947Z,3.91
2023-10-07T00:17:41.487Z,3.87
2023-10-07T00:18:56.653Z,3.95
2023-10-07T00:20:12.400Z,3.94
2023-10-07T00:21:18.041Z,3.92
2023-10-07T00:22:29.639Z,3.90
2023-10-07T00:23:36.814Z,3.91
2023-10-07T00:25:04.226Z,3.87
2023-10-07T00:27:49.443Z,3.91
2023-10-07T00:29:10.149Z,3.95
2023-10-07T00:30:24.083Z,3.83
2023-10-07T00:31:34.205Z,3.84
2023-10-07T00:32:40.042Z,3.77
2023-10-07T00:34:14.125Z,3.76
2023-10-07T00:35:18.244Z,3.75
2023-10-07T00:36:43.333Z,3.84
2023-10-07T00:37:58.419Z,3.72
2023-10-07T00:39:11.930Z,3.77
2023-10-07T00:40:23.573Z,3.78
2023-10-07T00:42:10.897Z,3.74
2023-10-07T00:43:31.013Z,3.73
2023-10-07T00:44:55.481Z,3.73
2023-10-07T00:46:32.097Z,3.74
2023-10-07T00:48:14.170Z,3.65
2023-10-07T00:49:31.414Z,3.66
2023-10-07T00:52:59.635Z,3.68
2023-10-07T00:54:24.523Z,3.64
2023-10-07T00:55:47.900Z,3.62
2023-10-07T00:59:20.173Z,3.69
2023-10-07T01:01:29.533Z,3.63
2023-10-07T01:03:11.953Z,3.62
2023-10-07T01:04:53.752Z,3.57
2023-10-07T01:06:33.033Z,3.58
2023-10-07T01:08:17.148Z,3.51
2023-10-07T01:09:34.804Z,3.55
2023-10-07T01:11:31.645Z,3.52
2023-10-07T01:13:21.409Z,3.56
2023-10-07T01:14:48.710Z,3.53
2023-10-07T01:16:03.427Z,3.56
2023-10-07T01:23:21.445Z,3.37
2023-10-07T01:26:07.181Z,3.43
2023-10-07T01:27:48.397Z,3.39
2023-10-07T01:35:43.888Z,3.36
2023-10-07T01:39:57.457Z,3.34
2023-10-07T01:42:10.481Z,3.28
2023-10-07T01:44:31.244Z,3.29
2023-10-07T01:50:17.936Z,3.23
2023-10-07T01:51:39.128Z,3.23
2023-10-07T01:53:18.594Z,3.23
2023-10-07T01:56:16.824Z,3.20
2023-10-07T01:57:27.867Z,3.22
2023-10-07T01:58:50.825Z,3.23
2023-10-07T02:02:31.310Z,3.25
2023-10-07T02:06:37.550Z,3.16
2023-10-07T02:07:56.714Z,3.23
2023-10-07T02:09:14.442Z,3.19
2023-10-07T02:12:11.711Z,3.23
2023-10-07T02:13:34.662Z,3.19
2023-10-07T02:15:29.806Z,3.16
2023-10-07T02:17:37.656Z,3.23
2023-10-07T02:19:36.600Z,3.23
2023-10-07T02:20:51.281Z,3.25
2023-10-07T02:24:03.045Z,3.21
2023-10-07T02:25:42.134Z,3.14
2023-10-07T02:27:22.598Z,3.15
2023-10-07T02:29:30.592Z,3.19
2023-10-07T02:32:48.414Z,3.21
2023-10-07T02:35:00.839Z,3.17
2023-10-07T02:36:39.171Z,3.19
2023-10-07T02:38:11.218Z,3.21
2023-10-07T02:39:52.660Z,3.23
2023-10-07T02:41:53.706Z,3.25
2023-10-07T02:43:43.738Z,3.16
2023-10-07T02:45:31.632Z,3.14
2023-10-07T02:47:34.814Z,3.17
2023-10-07T02:49:13.639Z,3.14
2023-10-07T02:52:30.981Z,3.05
2023-10-07T03:05:15.139Z,2.96
2023-10-07T03:06:50.754Z,3.00
2023-10-07T03:08:45.809Z,2.93
2023-10-07T03:11:27.622Z,2.83
2023-10-07T03:12:47.596Z,2.93
2023-10-07T03:14:03.362Z,2.81
2023-10-07T03:22:00.692Z,2.87
2023-10-07T03:28:27.043Z,2.88
2023-10-07T03:30:26.717Z,2.99
2023-10-07T03:32:05.163Z,3.03
2023-10-07T03:33:12.007Z,3.06
2023-10-07T03:34:40.752Z,3.15
2023-10-07T03:36:36.622Z,3.15
2023-10-07T03:37:48.578Z,3.20
2023-10-07T03:39:16.755Z,3.24
2023-10-07T03:40:42.461Z,3.18
2023-10-07T03:42:02.788Z,3.15
2023-10-07T03:43:16.048Z,3.17
2023-10-07T03:44:42.296Z,3.22
2023-10-07T03:46:08.656Z,3.19
2023-10-07T03:47:34.395Z,3.29
2023-10-07T03:48:58.896Z,3.33
2023-10-07T03:52:08.826Z,3.22
2023-10-07T03:53:19.513Z,3.27
2023-10-07T03:54:32.595Z,3.35
2023-10-07T03:55:45.077Z,3.37
2023-10-07T03:56:58.608Z,3.42
2023-10-07T03:58:06.546Z,3.47
2023-10-07T03:59:16.650Z,3.52
2023-10-07T04:00:38.218Z,3.47
2023-10-07T04:01:48.637Z,3.57
2023-10-07T04:03:03.369Z,3.56
2023-10-07T04:04:21.270Z,3.61
2023-10-07T04:05:36.957Z,3.64
2023-10-07T04:06:51.187Z,3.66
2023-10-07T04:08:06.948Z,3.63
2023-10-07T04:09:15.675Z,3.71
2023-10-07T04:10:21.708Z,3.77
2023-10-07T04:11:39.559Z,3.73
2023-10-07T04:12:55.760Z,3.64
2023-10-07T04:16:41.943Z,3.63
2023-10-07T04:19:40.108Z,3.75
2023-10-07T04:23:48.918Z,3.86
2023-10-07T04:25:28.539Z,3.97
2023-10-07T04:27:13.041Z,3.99
2023-10-07T04:28:55.307Z,3.94
2023-10-07T04:33:57.558Z,4.06
2023-10-07T04:37:32.364Z,4.08
2023-10-07T04:44:04.062Z,4.16
2023-10-07T04:48:56.653Z,4.37
2023-10-07T04:50:19.926Z,4.28
2023-10-07T04:52:10.948Z,4.28
2023-10-07T04:54:00.249Z,4.26
2023-10-07T04:59:12.313Z,4.31
2023-10-07T05:00:35.985Z,4.35
2023-10-07T05:02:17.475Z,4.52
2023-10-07T05:03:52.448Z,4.51
2023-10-07T05:05:22.553Z,4.43
2023-10-07T05:06:30.767Z,4.54
2023-10-07T05:07:55.903Z,4.51
2023-10-07T05:11:42.724Z,4.49
2023-10-07T05:13:08.188Z,4.44
2023-10-07T05:14:47.869Z,4.40
2023-10-07T05:16:41.543Z,4.50
2023-10-07T05:17:57.865Z,4.62
2023-10-07T05:19:26.302Z,4.56
2023-10-07T05:20:39.083Z,4.55
2023-10-07T05:21:50.894Z,4.41
2023-10-07T05:22:53.340Z,4.40
2023-10-07T05:23:56.299Z,4.44
2023-10-07T05:25:04.144Z,4.39
2023-10-07T05:26:18.657Z,4.54
2023-10-07T05:27:22.334Z,4.49
2023-10-07T05:28:26.367Z,4.50
2023-10-07T05:29:30.101Z,4.56
2023-10-07T05:30:33.820Z,4.65
2023-10-07T05:31:40.512Z,4.59
2023-10-07T05:32:47.270Z,4.65
2023-10-07T05:33:50.651Z,4.66
2023-10-07T05:34:58.591Z,4.80
2023-10-07T05:36:15.660Z,4.91
2023-10-07T05:37:18.671Z,4.90
2023-10-07T05:38:21.846Z,4.91
2023-10-07T05:39:27.854Z,4.79
2023-10-07T05:40:30.766Z,4.76
2023-10-07T05:41:33.390Z,4.70
2023-10-07T05:42:39.939Z,4.60
2023-10-07T05:43:44.843Z,4.68
2023-10-07T05:44:52.102Z,4.77
2023-10-07T05:45:56.152Z,4.66
2023-10-07T05:47:04.370Z,4.57
2023-10-07T05:48:09.245Z,4.48
2023-10-07T05:49:11.868Z,4.68
2023-10-07T05:50:15.875Z,4.75
2023-10-07T05:51:18.140Z,4.71
2023-10-07T05:52:20.983Z,4.69
2023-10-07T05:53:23.155Z,4.62
2023-10-07T05:54:29.449Z,4.66
2023-10-07T05:55:34.846Z,4.60
2023-10-07T05:56:36.904Z,4.68
2023-10-07T05:57:39.495Z,4.75
2023-10-07T05:58:42.353Z,4.80
2023-10-07T05:59:44.312Z,4.82
2023-10-07T06:00:46.862Z,4.67
2023-10-07T06:01:50.460Z,4.66
2023-10-07T06:02:56.780Z,4.65
2023-10-07T06:04:02.046Z,4.78
2023-10-07T06:05:06.855Z,4.82
2023-10-07T06:06:08.757Z,4.81
2023-10-07T06:07:21.948Z,4.69
2023-10-07T06:08:33.571Z,4.76
2023-10-07T06:09:43.197Z,4.83
2023-10-07T06:10:53.312Z,4.80
2023-10-07T06:11:56.437Z,4.68
2023-10-07T06:12:58.410Z,4.75
2023-10-07T06:14:00.747Z,4.76
2023-10-07T06:15:09.521Z,4.71
2023-10-07T06:16:15.398Z,4.71
2023-10-07T06:17:18.392Z,4.60
2023-10-07T06:18:22.627Z,4.67
2023-10-07T06:19:26.028Z,4.81
2023-10-07T06:20:28.517Z,4.84
2023-10-07T06:21:37.222Z,4.85
2023-10-07T06:22:40.421Z,4.83
2023-10-07T06:23:43.529Z,4.80
2023-10-07T06:24:48.700Z,4.86
2023-10-07T06:25:51.660Z,4.94
2023-10-07T06:26:56.244Z,5.02
2023-10-07T06:28:09.925Z,4.79
2023-10-07T06:30:59.825Z,4.78
2023-10-07T06:32:33.819Z,4.76
2023-10-07T06:34:19.549Z,4.78
2023-10-07T06:35:28.413Z,4.57
2023-10-07T06:36:38.871Z,4.78
2023-10-07T06:37:44.280Z,4.66
2023-10-07T06:38:55.327Z,4.81
2023-10-07T06:40:02.630Z,4.85
2023-10-07T06:41:11.550Z,4.84
2023-10-07T06:42:13.848Z,4.78
2023-10-07T06:43:17.447Z,4.79
2023-10-07T06:44:19.382Z,4.68
2023-10-07T06:45:22.159Z,4.81
2023-10-07T06:46:24.310Z,4.79
2023-10-07T06:47:30.948Z,4.83
2023-10-07T06:48:35.184Z,4.88
2023-10-07T06:49:41.000Z,4.86
2023-10-07T06:50:44.600Z,4.97
2023-10-07T06:51:52.033Z,5.01
2023-10-07T06:52:56.855Z,5.12
2023-10-07T06:54:02.147Z,5.02
2023-10-07T06:55:11.356Z,5.08
2023-10-07T06:56:22.265Z,5.10
2023-10-07T06:57:29.423Z,5.06
2023-10-07T06:58:31.520Z,5.11
2023-10-07T06:59:35.882Z,5.04
2023-10-07T07:00:48.975Z,5.12
2023-10-07T07:01:55.392Z,4.99
2023-10-07T07:03:00.577Z,4.92
2023-10-07T07:04:17.901Z,4.84
2023-10-07T07:05:20.071Z,4.90
2023-10-07T07:06:35.203Z,4.93
2023-10-07T07:07:39.535Z,4.93
2023-10-07T07:08:42.102Z,4.99
2023-10-07T07:09:48.822Z,5.00
2023-10-07T07:10:58.785Z,5.06
2023-10-07T07:12:12.677Z,5.08
2023-10-07T07:13:18.787Z,5.10
2023-10-07T07:14:20.844Z,5.02
2023-10-07T07:15:29.426Z,5.02
2023-10-07T07:16:42.936Z,4.92
2023-10-07T07:17:45.361Z,4.85
2023-10-07T07:18:48.573Z,4.90
2023-10-07T07:20:12.353Z,4.87
2023-10-07T07:21:33.089Z,4.80
2023-10-07T07:22:39.954Z,4.61
2023-10-07T07:23:46.476Z,4.55
2023-10-07T07:24:50.440Z,4.67
2023-10-07T07:26:13.208Z,4.70
2023-10-07T07:27:18.451Z,4.86
2023-10-07T07:28:20.675Z,4.78
2023-10-07T07:29:33.452Z,4.69
2023-10-07T07:30:37.053Z,4.78
2023-10-07T07:31:39.972Z,4.70
2023-10-07T07:32:42.151Z,4.77
2023-10-07T07:33:44.180Z,4.66
2023-10-07T07:34:46.225Z,4.66
2023-10-07T07:35:52.513Z,4.60
2023-10-07T07:37:03.975Z,4.64
2023-10-07T07:38:32.155Z,4.74
2023-10-07T07:39:34.576Z,4.66
2023-10-07T07:40:37.441Z,4.66
2023-10-07T07:41:55.363Z,4.69
2023-10-07T07:42:57.572Z,4.69
2023-10-07T07:44:02.082Z,4.78
2023-10-07T07:45:16.404Z,4.83
2023-10-07T07:46:20.573Z,4.83
2023-10-07T07:47:23.904Z,4.82
2023-10-07T07:48:26.563Z,4.76
2023-10-07T07:49:29.788Z,4.66
2023-10-07T07:50:36.632Z,4.76
2023-10-07T07:51:39.015Z,4.73
2023-10-07T07:52:42.406Z,4.81
2023-10-07T07:53:46.091Z,4.79
2023-10-07T07:54:47.992Z,4.73
2023-10-07T07:55:50.446Z,4.79
2023-10-07T07:56:53.411Z,4.79
2023-10-07T07:57:56.004Z,4.74
2023-10-07T07:58:57.848Z,4.65
2023-10-07T07:59:59.982Z,4.88
2023-10-07T08:01:05.957Z,4.86
2023-10-07T08:02:14.623Z,4.87
2023-10-07T08:03:17.900Z,4.85
2023-10-07T08:04:41.904Z,4.87
2023-10-07T08:05:48.428Z,4.85
2023-10-07T08:06:52.752Z,4.73
2023-10-07T08:07:56.559Z,4.84
2023-10-07T08:08:58.804Z,4.88
2023-10-07T08:10:05.076Z,4.76
2023-10-07T08:11:08.902Z,4.83
2023-10-07T08:12:12.416Z,4.80
2023-10-07T08:13:18.664Z,4.93
2023-10-07T08:14:23.454Z,4.76
2023-10-07T08:15:25.838Z,4.77
2023-10-07T08:16:27.916Z,4.82
2023-10-07T08:17:30.409Z,4.81
2023-10-07T08:18:35.393Z,4.78
2023-10-07T08:19:39.416Z,4.69
2023-10-07T08:20:47.606Z,4.66
2023-10-07T08:21:53.604Z,4.79
2023-10-07T08:22:56.219Z,4.89
2023-10-07T08:24:03.637Z,4.77
2023-10-07T08:25:11.212Z,4.80
2023-10-07T08:26:14.212Z,4.93
2023-10-07T08:27:38.214Z,4.87
2023-10-07T08:28:43.280Z,4.84
2023-10-07T08:29:46.607Z,4.96
2023-10-07T08:30:49.397Z,4.92
2023-10-07T08:31:51.774Z,4.96
2023-10-07T08:32:56.689Z,4.92
2023-10-07T08:34:25.603Z,4.95
2023-10-07T08:35:29.401Z,4.99
2023-10-07T08:36:48.866Z,4.98
2023-10-07T08:37:51.919Z,4.99
2023-10-07T08:38:54.662Z,4.95
2023-10-07T08:40:00.755Z,4.96
2023-10-07T08:41:07.940Z,4.97
2023-10-07T08:42:15.498Z,4.79
2023-10-07T08:43:27.213Z,4.92
2023-10-07T08:44:33.445Z,4.85
2023-10-07T08:45:43.008Z,4.83
2023-10-07T08:47:05.267Z,4.88
2023-10-07T08:48:18.959Z,4.85
2023-10-07T08:49:32.179Z,4.99
2023-10-07T08:50:44.707Z,4.92
2023-10-07T08:51:47.597Z,4.91
2023-10-07T08:52:58.137Z,5.03
2023-10-07T08:54:10.652Z,5.00
2023-10-07T08:55:13.010Z,5.07
2023-10-07T08:56:21.342Z,5.09
2023-10-07T08:57:25.143Z,5.16
2023-10-07T08:58:32.507Z,5.14
2023-10-07T08:59:37.416Z,5.21
2023-10-07T09:00:46.752Z,5.11
2023-10-07T09:01:58.540Z,5.22
2023-10-07T09:03:01.462Z,5.16
2023-10-07T09:04:09.124Z,5.08
2023-10-07T09:05:18.030Z,5.07
2023-10-07T09:06:21.869Z,5.15
2023-10-07T09:07:24.195Z,5.24
2023-10-07T09:08:31.904Z,5.23
2023-10-07T09:09:41.581Z,5.16
2023-10-07T09:10:46.976Z,5.29
2023-10-07T09:11:53.003Z,5.21
2023-10-07T09:13:05.147Z,5.35
2023-10-07T09:14:12.103Z,5.19
2023-10-07T09:15:22.766Z,5.35
2023-10-07T09:16:26.449Z,5.35
2023-10-07T09:17:28.496Z,5.35
2023-10-07T09:18:43.822Z,5.39
2023-10-07T09:19:50.077Z,5.42
2023-10-07T09:21:11.273Z,5.42
2023-10-07T09:22:13.141Z,5.37
2023-10-07T09:23:23.735Z,5.43
2023-10-07T09:24:29.591Z,5.54
2023-10-07T09:25:34.235Z,5.56
2023-10-07T09:26:37.363Z,5.54
2023-10-07T09:27:39.817Z,5.51
2023-10-07T09:28:48.368Z,5.51
2023-10-07T09:29:53.054Z,5.60
2023-10-07T09:30:56.585Z,5.61
2023-10-07T09:33:38.946Z,5.68
2023-10-07T09:34:46.273Z,5.63
2023-10-07T09:36:11.102Z,5.62
2023-10-07T09:37:34.475Z,5.64
2023-10-07T09:38:45.428Z,5.68
2023-10-07T09:39:55.983Z,5.72
2023-10-07T09:40:58.543Z,5.63
2023-10-07T09:42:05.592Z,5.71
2023-10-07T09:43:11.906Z,5.73
2023-10-07T09:44:29.853Z,5.75
2023-10-07T09:45:35.563Z,5.84
2023-10-07T09:46:43.044Z,5.86
2023-10-07T09:47:49.043Z,5.67
2023-10-07T09:48:55.157Z,5.70
2023-10-07T09:50:00.056Z,5.75
2023-10-07T09:51:24.541Z,5.72
2023-10-07T09:52:33.861Z,5.78
2023-10-07T09:54:20.815Z,5.77
2023-10-07T09:55:23.831Z,5.71
2023-10-07T09:56:47.151Z,5.77
2023-10-07T09:58:00.337Z,5.70
2023-10-07T09:59:18.521Z,5.79
2023-10-07T10:00:41.618Z,5.85
2023-10-07T10:02:17.951Z,5.83
2023-10-07T10:04:07.364Z,5.86
2023-10-07T10:05:30.491Z,5.85
2023-10-07T10:06:53.908Z,5.93
2023-10-07T10:08:12.344Z,5.95
2023-10-07T10:09:16.091Z,5.97
2023-10-07T10:10:18.700Z,5.93
2023-10-07T10:11:45.256Z,5.94
2023-10-07T10:13:03.629Z,5.91
2023-10-07T10:14:20.848Z,6.04
2023-10-07T10:15:39.539Z,5.94
2023-10-07T10:16:48.463Z,6.04
2023-10-07T10:17:54.676Z,6.02
2023-10-07T10:19:23.177Z,6.07
2023-10-07T10:20:43.665Z,6.04
2023-10-07T10:21:45.726Z,6.09
2023-10-07T10:23:02.627Z,6.13
2023-10-07T10:24:05.010Z,6.22
2023-10-07T10:25:27.125Z,6.26
2023-10-07T10:26:34.698Z,6.12
2023-10-07T10:27:45.846Z,6.18
2023-10-07T10:29:01.957Z,6.31
2023-10-07T10:30:06.722Z,6.26
2023-10-07T10:31:20.699Z,6.26
2023-10-07T10:32:30.475Z,6.34
2023-10-07T10:33:34.260Z,6.34
2023-10-07T10:34:36.758Z,6.44
2023-10-07T10:35:41.878Z,6.47
2023-10-07T10:36:45.215Z,6.49
2023-10-07T10:37:55.998Z,6.49
2023-10-07T10:38:59.064Z,6.57
2023-10-07T10:40:13.784Z,6.52
2023-10-07T10:41:31.348Z,6.57
2023-10-07T10:42:44.870Z,6.61
2023-10-07T10:43:49.132Z,6.68
2023-10-07T10:44:54.321Z,6.73
2023-10-07T10:46:06.628Z,6.78
2023-10-07T10:47:11.166Z,6.80
2023-10-07T10:48:16.155Z,6.82
2023-10-07T10:49:24.853Z,6.79
2023-10-07T10:50:33.823Z,6.87
2023-10-07T10:51:35.862Z,6.81
2023-10-07T10:52:40.201Z,6.86
2023-10-07T10:53:42.806Z,6.91
2023-10-07T10:54:45.595Z,6.95
2023-10-07T10:55:47.791Z,6.99
2023-10-07T10:56:57.241Z,7.07
2023-10-07T10:58:01.289Z,6.88
2023-10-07T10:59:03.265Z,7.01
2023-10-07T11:00:17.657Z,7.06
2023-10-07T11:01:21.274Z,7.15
2023-10-07T11:02:26.288Z,7.12
2023-10-07T11:03:29.145Z,7.13
2023-10-07T11:04:33.095Z,7.12
2023-10-07T11:05:35.453Z,7.22
2023-10-07T11:06:38.581Z,7.18
2023-10-07T11:07:42.152Z,7.25
2023-10-07T11:08:46.124Z,7.20
2023-10-07T11:09:49.881Z,7.21
2023-10-07T11:10:58.476Z,7.23
2023-10-07T11:12:10.220Z,7.23
2023-10-07T11:13:14.638Z,7.24
2023-10-07T11:14:22.178Z,7.31
2023-10-07T11:15:28.138Z,7.24
2023-10-07T11:16:31.821Z,7.26
2023-10-07T11:17:34.417Z,7.24
2023-10-07T11:18:48.447Z,7.28
2023-10-07T11:32:36.616Z,7.37
2023-10-07T11:34:04.472Z,7.40
2023-10-07T11:35:29.221Z,7.39
2023-10-07T11:42:17.990Z,7.40
2023-10-07T11:45:13.301Z,7.55
2023-10-07T11:46:24.836Z,7.49
2023-10-07T11:47:28.643Z,7.63
2023-10-07T11:48:32.020Z,7.54
2023-10-07T11:49:36.190Z,7.68
2023-10-07T11:50:40.827Z,7.59
2023-10-07T11:51:43.072Z,7.56
2023-10-07T11:52:45.974Z,7.60
2023-10-07T11:53:47.962Z,7.74
2023-10-07T11:54:50.679Z,7.80
2023-10-07T11:55:53.270Z,7.77
2023-10-07T11:56:55.609Z,7.90
2023-10-07T11:58:01.087Z,7.91
2023-10-07T11:59:04.120Z,7.82
2023-10-07T12:00:17.487Z,7.87
2023-10-07T12:01:21.831Z,7.78
2023-10-07T12:02:24.145Z,7.87
2023-10-07T12:03:26.954Z,7.91
2023-10-07T12:04:29.369Z,7.95
2023-10-07T12:05:32.779Z,8.01
2023-10-07T12:06:35.116Z,7.96
2023-10-07T12:07:39.733Z,7.94
2023-10-07T12:08:44.246Z,7.85
2023-10-07T12:09:48.651Z,7.80
2023-10-07T12:10:54.903Z,7.89
2023-10-07T12:12:00.162Z,7.86
2023-10-07T12:13:08.358Z,7.80
2023-10-07T12:14:10.968Z,7.94
2023-10-07T12:15:17.081Z,7.98
2023-10-07T12:16:19.118Z,8.01
2023-10-07T12:17:22.211Z,8.03
2023-10-07T12:18:24.270Z,8.09
2023-10-07T12:19:26.924Z,8.14
2023-10-07T12:20:29.908Z,8.09
2023-10-07T12:21:35.971Z,8.06
2023-10-07T12:22:38.606Z,8.11
2023-10-07T12:23:46.561Z,8.11
2023-10-07T12:24:48.424Z,8.20
2023-10-07T12:25:51.106Z,8.15
2023-10-07T12:26:52.929Z,8.27
2023-10-07T12:27:56.210Z,8.18
2023-10-07T12:28:59.984Z,8.20
2023-10-07T12:30:01.931Z,8.15
2023-10-07T12:31:14.575Z,8.18
2023-10-07T12:32:17.585Z,8.23
2023-10-07T12:33:33.287Z,8.25
2023-10-07T12:34:38.898Z,8.24
2023-10-07T12:35:42.290Z,8.15
2023-10-07T12:36:44.372Z,8.21
2023-10-07T12:37:53.245Z,8.17
2023-10-07T12:38:55.616Z,8.21
2023-10-07T12:39:58.229Z,8.21
2023-10-07T12:41:08.242Z,8.18
2023-10-07T12:42:11.122Z,8.31
2023-10-07T12:43:14.558Z,8.32
2023-10-07T12:44:18.280Z,8.19
2023-10-07T12:45:20.864Z,8.28
2023-10-07T12:46:22.791Z,8.28
2023-10-07T12:47:25.963Z,8.24
2023-10-07T12:48:28.261Z,8.24
2023-10-07T12:49:31.556Z,8.33
2023-10-07T12:50:34.873Z,8.27
2023-10-07T12:51:45.135Z,8.32
2023-10-07T12:52:51.244Z,8.31
2023-10-07T12:53:58.137Z,8.29
2023-10-07T12:54:59.919Z,8.39
2023-10-07T12:56:20.982Z,8.43
2023-10-07T12:57:23.236Z,8.48
2023-10-07T12:58:28.227Z,8.55
2023-10-07T12:59:36.808Z,8.65
2023-10-07T13:00:38.915Z,8.57
2023-10-07T13:01:40.740Z,8.54
2023-10-07T13:02:45.438Z,8.67
2023-10-07T13:03:48.877Z,8.64
2023-10-07T13:04:55.945Z,8.75
2023-10-07T13:06:02.556Z,8.56
2023-10-07T13:07:15.246Z,8.63
2023-10-07T13:08:17.315Z,8.67
2023-10-07T13:09:21.737Z,8.63
2023-10-07T13:10:24.669Z,8.69
2023-10-07T13:11:30.159Z,8.71
2023-10-07T13:16:14.072Z,8.63
2023-10-07T13:17:16.906Z,8.64
2023-10-07T13:18:20.167Z,8.68
2023-10-07T13:19:27.443Z,8.57
2023-10-07T13:20:30.401Z,8.65
2023-10-07T13:21:38.504Z,8.63
2023-10-07T13:22:43.575Z,8.67
2023-10-07T13:23:49.144Z,8.58
2023-10-07T13:24:54.833Z,8.56
2023-10-07T13:25:59.355Z,8.67
2023-10-07T13:27:08.065Z,8.64
2023-10-07T13:28:11.457Z,8.53
2023-10-07T13:29:13.685Z,8.54
2023-10-07T13:30:19.885Z,8.65
2023-10-07T13:31:33.410Z,8.55
2023-10-07T13:32:41.184Z,8.68
2023-10-07T13:33:48.177Z,8.66
2023-10-07T13:34:54.770Z,8.72
2023-10-07T13:36:00.615Z,8.73
2023-10-07T13:37:07.474Z,8.61
2023-10-07T13:38:27.338Z,8.79
2023-10-07T13:39:35.700Z,8.83
2023-10-07T13:40:39.372Z,8.87
2023-10-07T13:41:44.878Z,8.79
2023-10-07T13:42:49.124Z,8.82
2023-10-07T13:43:53.271Z,8.65
2023-10-07T13:44:56.177Z,8.72
2023-10-07T13:45:58.624Z,8.75
2023-10-07T13:47:01.603Z,8.76
2023-10-07T13:48:04.952Z,8.81
2023-10-07T13:49:10.377Z,8.83
2023-10-07T13:50:16.690Z,8.83
2023-10-07T13:51:40.456Z,8.84
2023-10-07T13:52:51.922Z,8.86
2023-10-07T13:54:14.791Z,8.83
2023-10-07T13:55:41.727Z,8.88
2023-10-07T13:56:49.511Z,8.88
2023-10-07T13:57:59.491Z,8.92
2023-10-07T13:59:06.585Z,8.99
2023-10-07T14:00:28.940Z,9.04
2023-10-07T14:01:32.396Z,8.94
2023-10-07T14:02:34.523Z,9.06
2023-10-07T14:03:42.598Z,9.02
2023-10-07T14:04:50.845Z,8.97
2023-10-07T14:06:15.998Z,8.90
2023-10-07T14:07:25.714Z,9.02
2023-10-07T14:08:32.982Z,9.04
2023-10-07T14:09:39.296Z,9.07
2023-10-07T14:10:41.927Z,9.05
2023-10-07T14:11:46.182Z,9.03
2023-10-07T14:12:48.434Z,9.07
2023-10-07T14:13:50.383Z,9.07
2023-10-07T14:14:54.149Z,9.05
2023-10-07T14:16:10.246Z,9.11
2023-10-07T14:17:21.695Z,9.03
2023-10-07T14:21:48.502Z,9.12
2023-10-07T14:22:51.364Z,9.20
2023-10-07T14:23:54.661Z,9.20
2023-10-07T14:24:58.780Z,9.22
2023-10-07T14:26:10.648Z,9.15
2023-10-07T14:27:13.237Z,9.22
2023-10-07T14:28:15.099Z,9.30
2023-10-07T14:29:17.104Z,9.20
2023-10-07T14:30:20.216Z,9.15
2023-10-07T14:31:23.709Z,9.10
2023-10-07T14:32:25.729Z,9.09
2023-10-07T14:33:27.808Z,9.10
2023-10-07T14:34:29.741Z,9.12
2023-10-07T14:35:37.406Z,9.11
2023-10-07T14:36:42.895Z,9.25
2023-10-07T14:37:46.666Z,9.31
2023-10-07T14:38:50.197Z,9.31
2023-10-07T14:39:57.649Z,9.38
2023-10-07T14:41:00.449Z,9.35
2023-10-07T14:42:02.482Z,9.35
2023-10-07T14:43:05.667Z,9.42
2023-10-07T14:44:07.984Z,9.40
2023-10-07T14:45:10.920Z,9.37
2023-10-07T14:46:13.317Z,9.34
2023-10-07T14:47:15.724Z,9.37
2023-10-07T14:48:18.487Z,9.43
2023-10-07T14:49:20.542Z,9.46
2023-10-07T14:50:22.539Z,9.54
2023-10-07T14:51:24.422Z,9.57
2023-10-07T14:52:26.404Z,9.56
2023-10-07T14:53:32.677Z,9.62
2023-10-07T14:54:35.154Z,9.60
2023-10-07T14:55:37.127Z,9.65
2023-10-07T14:56:42.931Z,9.65
2023-10-07T14:57:45.810Z,9.73
2023-10-07T14:58:50.098Z,9.68
2023-10-07T14:59:52.607Z,9.78
2023-10-07T15:00:55.446Z,9.82
2023-10-07T15:01:58.344Z,9.81
2023-10-07T15:03:02.484Z,9.80
2023-10-07T15:04:04.703Z,9.84
2023-10-07T15:05:09.305Z,9.82
2023-10-07T15:06:15.805Z,9.82
2023-10-07T15:07:18.623Z,9.84
2023-10-07T15:08:20.513Z,9.89
2023-10-07T15:09:22.874Z,9.92
2023-10-07T15:10:29.317Z,9.94
2023-10-07T15:11:31.617Z,9.92
2023-10-07T15:12:33.679Z,9.95
2023-10-07T15:13:38.535Z,9.91
2023-10-07T15:14:41.943Z,9.99
2023-10-07T15:15:50.482Z,9.96
2023-10-07T15:16:52.520Z,10.09
2023-10-07T15:17:56.357Z,10.08
2023-10-07T15:18:58.337Z,10.14
2023-10-07T15:20:01.231Z,10.13
2023-10-07T15:21:06.657Z,10.20
2023-10-07T15:22:08.713Z,10.24
2023-10-07T15:23:10.855Z,10.23
2023-10-07T15:24:14.787Z,10.13
2023-10-07T15:25:17.370Z,10.25
2023-10-07T15:26:20.200Z,10.27
2023-10-07T15:27:27.675Z,10.25
2023-10-07T15:28:33.184Z,10.19
2023-10-07T15:29:38.084Z,10.29
2023-10-07T15:30:50.855Z,10.31
2023-10-07T15:32:06.375Z,10.37
2023-10-07T15:34:07.743Z,10.32
2023-10-07T15:35:09.879Z,10.43
2023-10-07T15:36:12.452Z,10.44
2023-10-07T15:37:14.376Z,10.42
2023-10-07T15:38:18.443Z,10.47
2023-10-07T15:39:22.530Z,10.50
2023-10-07T15:40:24.985Z,10.52
2023-10-07T15:41:27.158Z,10.54
2023-10-07T15:42:31.371Z,10.52
2023-10-07T15:43:33.486Z,10.52
2023-10-07T15:44:35.828Z,10.43
2023-10-07T15:45:51.425Z,10.50
2023-10-07T15:46:57.164Z,10.41
2023-10-07T15:47:59.089Z,10.44
2023-10-07T15:49:11.839Z,10.49
2023-10-07T15:50:16.918Z,10.53
2023-10-07T15:51:19.396Z,10.51
2023-10-07T15:52:24.249Z,10.59
2023-10-07T15:53:33.667Z,10.55
2023-10-07T15:54:40.125Z,10.49
2023-10-07T15:55:45.738Z,10.50
2023-10-07T15:56:51.136Z,10.54
2023-10-07T15:57:54.181Z,10.58
2023-10-07T15:58:56.736Z,10.61
2023-10-07T16:00:01.163Z,10.64
2023-10-07T16:01:04.478Z,10.56
2023-10-07T16:02:09.368Z,10.59
2023-10-07T16:03:13.628Z,10.54
2023-10-07T16:04:16.888Z,10.59
2023-10-07T16:05:19.558Z,10.49
2023-10-07T16:06:21.999Z,10.58
2023-10-07T16:07:26.267Z,10.57
2023-10-07T16:08:28.336Z,10.51
2023-10-07T16:09:31.584Z,10.62
2023-10-07T16:10:38.743Z,10.60
2023-10-07T16:11:45.326Z,10.62
2023-10-07T16:12:47.789Z,10.45
2023-10-07T16:13:49.746Z,10.45
2023-10-07T16:14:52.073Z,10.58
2023-10-07T16:15:57.645Z,10.62
2023-10-07T16:17:02.558Z,10.70
2023-10-07T16:18:05.873Z,10.72
2023-10-07T16:19:08.264Z,10.75
2023-10-07T16:20:11.496Z,10.83
2023-10-07T16:21:19.437Z,10.76
2023-10-07T16:22:21.682Z,10.79
2023-10-07T16:23:24.905Z,10.87
2023-10-07T16:24:27.700Z,10.83
2023-10-07T16:25:29.727Z,10.75
2023-10-07T16:26:32.290Z,10.75
2023-10-07T16:27:34.461Z,10.65
2023-10-07T16:28:42.421Z,10.80
2023-10-07T16:29:44.581Z,10.87
2023-10-07T16:30:48.913Z,10.78
2023-10-07T16:31:54.729Z,10.85
2023-10-07T16:32:56.846Z,10.79
2023-10-07T16:33:59.849Z,10.79
2023-10-07T16:35:05.751Z,10.83
2023-10-07T16:36:08.747Z,10.86
2023-10-07T16:37:15.860Z,10.80
2023-10-07T16:38:18.314Z,10.83
2023-10-07T16:39:23.654Z,10.78
2023-10-07T16:40:28.194Z,10.82
2023-10-07T16:41:31.003Z,10.86
2023-10-07T16:42:33.497Z,10.91
2023-10-07T16:43:37.106Z,10.85
2023-10-07T16:44:39.338Z,10.80
2023-10-07T16:45:41.979Z,10.89
2023-10-07T16:46:45.661Z,10.79
2023-10-07T16:47:55.145Z,10.87
2023-10-07T16:48:59.059Z,10.77
2023-10-07T16:50:01.255Z,10.80
2023-10-07T16:51:13.236Z,10.73
2023-10-07T16:52:23.391Z,10.83
2023-10-07T16:53:25.771Z,10.88
2023-10-07T16:54:27.707Z,10.87
2023-10-07T16:55:29.930Z,10.92
2023-10-07T16:56:58.820Z,10.87
2023-10-07T16:58:01.345Z,10.86
2023-10-07T16:59:12.938Z,10.88
2023-10-07T17:00:17.167Z,10.88
2023-10-07T17:01:19.900Z,10.94
2023-10-07T17:02:27.907Z,10.90
2023-10-07T17:03:30.901Z,10.89
2023-10-07T17:04:33.823Z,10.84
2023-10-07T17:05:35.964Z,10.82
2023-10-07T17:06:39.575Z,10.85
2023-10-07T17:07:41.716Z,10.92
2023-10-07T17:08:50.206Z,10.94
2023-10-07T17:09:58.071Z,10.91
2023-10-07T17:11:06.002Z,10.91
2023-10-07T17:12:09.030Z,10.96
2023-10-07T17:13:12.216Z,10.97
2023-10-07T17:14:14.148Z,10.98
2023-10-07T17:15:16.453Z,10.92
2023-10-07T17:16:24.584Z,10.89
2023-10-07T17:17:29.489Z,10.83
2023-10-07T17:18:34.292Z,10.80
2023-10-07T17:19:38.217Z,10.86
2023-10-07T17:20:44.165Z,10.81
2023-10-07T17:21:49.902Z,10.83
2023-10-07T17:22:53.949Z,10.85
2023-10-07T17:23:56.170Z,10.84
2023-10-07T17:24:58.153Z,10.87
2023-10-07T17:26:07.089Z,10.90
2023-10-07T17:27:10.424Z,10.91
2023-10-07T17:28:13.588Z,10.83
2023-10-07T17:29:16.022Z,10.77
2023-10-07T17:30:22.384Z,10.73
2023-10-07T17:31:24.370Z,10.82
2023-10-07T17:32:28.289Z,10.75
2023-10-07T17:33:31.183Z,10.81
2023-10-07T17:34:38.598Z,10.84
2023-10-07T17:35:43.987Z,10.77
2023-10-07T17:36:47.112Z,10.79
2023-10-07T17:37:52.090Z,10.76
2023-10-07T17:38:55.068Z,10.81
2023-10-07T17:39:57.186Z,10.80